Time;durP1;ratioP1;P1;durP2;ratioP2;P2;SDS_P1;SDS_P2;PMS_P1;PMS_P2;Temp;Humidity;BMP_temperature;BMP_pressure;BME280_temperature;BME280_humidity;BME280_pressure;Samples;Min_cycle;Max_cycle;Signal;HPM_P1;HPM_P2
2023/05/11 00:01:34;;;;;;;1.00;0.60;;;10.40;99.90;;;;;;5053456;28;20609;-57
2023/05/11 00:04:01;;;;;;;2.10;0.67;;;10.50;99.90;;;;;;5053392;28;20535;-57
2023/05/11 00:06:28;;;;;;;1.17;0.70;;;10.50;99.90;;;;;;5052142;28;20554;-58
2023/05/11 00:08:55;;;;;;;1.37;0.40;;;10.40;99.90;;;;;;5053275;28;20543;-57
2023/05/11 00:11:22;;;;;;;2.40;0.50;;;10.20;99.90;;;;;;5053051;28;20600;-57
2023/05/11 00:13:49;;;;;;;1.07;0.60;;;10.30;99.90;;;;;;5052755;28;20448;-58
2023/05/11 00:16:17;;;;;;;2.20;0.50;;;10.20;99.90;;;;;;5052446;28;20547;-57
2023/05/11 00:18:44;;;;;;;1.23;0.50;;;10.30;99.90;;;;;;5050248;28;20892;-58
2023/05/11 00:21:11;;;;;;;0.97;0.40;;;10.40;99.90;;;;;;5052254;28;20578;-57
2023/05/11 00:23:38;;;;;;;1.00;0.50;;;10.40;99.90;;;;;;5052654;28;20979;-57
2023/05/11 00:26:05;;;;;;;1.00;0.50;;;10.20;99.90;;;;;;5052771;28;20576;-57
2023/05/11 00:28:32;;;;;;;1.30;0.60;;;10.20;99.90;;;;;;5052685;28;20536;-57
2023/05/11 00:30:59;;;;;;;0.90;0.40;;;10.30;99.90;;;;;;5052097;28;20558;-57
2023/05/11 00:33:27;;;;;;;1.77;0.40;;;10.30;99.90;;;;;;5052057;28;20449;-56
2023/05/11 00:35:54;;;;;;;1.23;0.53;;;10.30;99.90;;;;;;5051364;28;20519;-57
2023/05/11 00:38:21;;;;;;;1.10;0.50;;;10.30;99.90;;;;;;5051317;28;20464;-57
2023/05/11 00:40:49;;;;;;;0.90;0.40;;;10.30;99.90;;;;;;5049419;28;20469;-57
2023/05/11 00:43:16;;;;;;;1.00;0.60;;;10.40;99.90;;;;;;5052550;28;20459;-57
2023/05/11 00:45:46;;;;;;;0.93;0.43;;;10.30;99.90;;;;;;5052389;28;20487;-57
2023/05/11 00:48:14;;;;;;;1.03;0.50;;;10.30;99.90;;;;;;5052302;28;20542;-56
2023/05/11 00:50:42;;;;;;;1.00;0.50;;;9.80;99.90;;;;;;5051874;28;20567;-58
2023/05/11 00:53:10;;;;;;;0.90;0.50;;;9.60;99.90;;;;;;5052336;28;20542;-57
2023/05/11 00:55:37;;;;;;;1.30;0.47;;;9.80;99.90;;;;;;5052003;28;20448;-57
2023/05/11 00:58:05;;;;;;;0.83;0.40;;;10.10;99.90;;;;;;5051158;28;20530;-57
2023/05/11 01:00:32;;;;;;;1.60;0.60;;;10.20;99.90;;;;;;5051542;28;20533;-58
2023/05/11 01:03:01;;;;;;;2.93;2.33;;;10.20;99.90;;;;;;5051927;28;20966;-57
2023/05/11 01:05:36;;;;;;;3.30;1.30;;;10.20;99.90;;;;;;5051767;28;20528;-56
2023/05/11 01:08:11;;;;;;;2.73;1.87;;;9.70;99.90;;;;;;5047004;28;20474;-57
2023/05/11 01:10:44;;;;;;;2.67;1.53;;;9.70;99.90;;;;;;5051548;28;20563;-57
2023/05/11 01:13:17;;;;;;;2.27;1.03;;;9.90;99.90;;;;;;5051474;28;20486;-58
2023/05/11 01:15:48;;;;;;;0.97;0.50;;;10.10;99.90;;;;;;5052095;28;20525;-57
2023/05/11 01:18:25;;;;;;;1.10;0.50;;;10.10;99.90;;;;;;5051418;28;20474;-58
2023/05/11 01:20:56;;;;;;;0.90;0.60;;;10.20;99.90;;;;;;5051331;28;20539;-56
2023/05/11 01:23:51;;;;;;;1.03;0.40;;;10.20;99.90;;;;;;5051255;28;20471;-57
2023/05/11 01:26:45;;;;;;;0.90;0.40;;;10.30;99.90;;;;;;5040320;28;20545;-57
2023/05/11 01:29:54;;;;;;;1.67;0.50;;;10.30;99.90;;;;;;5050303;28;20483;-57
2023/05/11 01:32:25;;;;;;;1.00;0.50;;;10.30;99.90;;;;;;5051160;28;20428;-57
2023/05/11 01:35:00;;;;;;;1.00;0.60;;;10.10;99.90;;;;;;5051244;28;20489;-57
2023/05/11 01:37:27;;;;;;;0.90;0.50;;;10.00;99.90;;;;;;5051399;28;20899;-57
2023/05/11 01:39:59;;;;;;;1.00;0.50;;;9.90;99.90;;;;;;5050863;28;20530;-57
2023/05/11 01:42:31;;;;;;;1.00;0.50;;;9.60;99.90;;;;;;5051262;28;21719;-57
2023/05/11 01:45:00;;;;;;;1.00;0.50;;;9.90;99.90;;;;;;5051463;28;20442;-57
2023/05/11 01:47:30;;;;;;;3.33;0.60;;;9.90;99.90;;;;;;5050806;28;20474;-56
2023/05/11 01:49:58;;;;;;;0.90;0.40;;;9.90;99.90;;;;;;5050644;28;20542;-58
2023/05/11 01:52:27;;;;;;;1.10;0.50;;;9.80;99.90;;;;;;5050462;28;20888;-58
2023/05/11 01:54:56;;;;;;;1.53;0.60;;;9.50;99.90;;;;;;5050703;28;20449;-57
2023/05/11 01:57:24;;;;;;;2.60;1.27;;;9.20;99.90;;;;;;5050383;28;20465;-57
2023/05/11 01:59:52;;;;;;;3.67;0.73;;;9.30;99.90;;;;;;5051168;28;20558;-59
2023/05/11 02:02:20;;;;;;;1.77;0.60;;;9.20;99.90;;;;;;5049965;28;20441;-57
2023/05/11 02:04:50;;;;;;;1.33;0.70;;;9.70;99.90;;;;;;5050630;28;21060;-58
2023/05/11 02:07:18;;;;;;;1.30;0.67;;;9.70;99.90;;;;;;5050679;28;20477;-57
2023/05/11 02:09:47;;;;;;;0.90;0.50;;;9.80;99.90;;;;;;5050722;28;20580;-57
2023/05/11 02:12:15;;;;;;;1.60;0.50;;;9.80;99.90;;;;;;5050356;28;20560;-56
2023/05/11 02:14:43;;;;;;;0.90;0.50;;;10.00;99.90;;;;;;5050663;28;20541;-57
2023/05/11 02:17:11;;;;;;;0.80;0.30;;;9.80;99.90;;;;;;5050163;28;20558;-57
2023/05/11 02:19:39;;;;;;;0.90;0.40;;;9.90;99.90;;;;;;5050528;28;20506;-58
2023/05/11 02:22:09;;;;;;;0.90;0.50;;;9.70;99.90;;;;;;5050381;28;20481;-58
2023/05/11 02:24:36;;;;;;;1.10;0.63;;;9.60;99.90;;;;;;5050489;28;20542;-57
2023/05/11 02:27:03;;;;;;;1.10;0.50;;;9.50;99.90;;;;;;5050821;28;21096;-56
2023/05/11 02:29:31;;;;;;;0.93;0.43;;;9.70;99.90;;;;;;5050631;28;20516;-58
2023/05/11 02:32:04;;;;;;;0.90;0.40;;;9.70;99.90;;;;;;5049960;28;20902;-57
2023/05/11 02:34:38;;;;;;;0.90;0.40;;;9.70;99.90;;;;;;5031066;28;20931;-57
2023/05/11 02:37:10;;;;;;;0.90;0.40;;;9.60;99.90;;;;;;5042335;28;20546;-58
2023/05/11 02:39:38;;;;;;;2.03;0.63;;;9.60;99.90;;;;;;5051401;28;20966;-58
2023/05/11 02:42:12;;;;;;;1.00;0.50;;;9.60;99.90;;;;;;5054152;28;20475;-59
2023/05/11 02:44:41;;;;;;;1.00;0.60;;;9.60;99.90;;;;;;5054608;28;20486;-57
2023/05/11 02:47:12;;;;;;;1.00;0.40;;;9.50;99.90;;;;;;5054664;28;20545;-57
2023/05/11 02:49:40;;;;;;;1.30;0.40;;;9.50;99.90;;;;;;5054298;28;20450;-57
2023/05/11 02:52:10;;;;;;;0.90;0.40;;;9.60;99.90;;;;;;5053699;28;20562;-57
2023/05/11 02:54:39;;;;;;;0.90;0.40;;;9.60;99.90;;;;;;5053632;28;20474;-57
2023/05/11 02:57:06;;;;;;;0.90;0.50;;;9.60;99.90;;;;;;5053920;28;20508;-58
2023/05/11 02:59:33;;;;;;;1.03;0.50;;;9.50;99.90;;;;;;5054719;28;20530;-57
2023/05/11 03:02:00;;;;;;;0.80;0.40;;;9.50;99.90;;;;;;5054507;28;20443;-59
2023/05/11 03:04:28;;;;;;;0.90;0.50;;;9.30;99.90;;;;;;5054111;28;20489;-57
2023/05/11 03:06:55;;;;;;;0.90;0.50;;;9.30;99.90;;;;;;5052076;28;20474;-58
2023/05/11 03:09:23;;;;;;;0.87;0.47;;;9.30;99.90;;;;;;5045835;28;20899;-57
2023/05/11 03:11:51;;;;;;;1.27;0.60;;;9.40;99.90;;;;;;5034583;28;20481;-58
2023/05/11 03:14:18;;;;;;;0.80;0.40;;;9.30;99.90;;;;;;5044413;28;20445;-57
2023/05/11 03:16:45;;;;;;;1.00;0.40;;;9.30;99.90;;;;;;5054113;28;20493;-55
2023/05/11 03:19:14;;;;;;;1.00;0.50;;;9.40;99.90;;;;;;5053113;28;20482;-57
2023/05/11 03:21:41;;;;;;;1.00;0.53;;;9.40;99.90;;;;;;5053954;28;21050;-57
2023/05/11 03:24:08;;;;;;;0.90;0.40;;;9.30;99.90;;;;;;5053407;28;20528;-56
2023/05/11 03:26:37;;;;;;;0.90;0.43;;;9.20;99.90;;;;;;5053594;28;20550;-57
2023/05/11 03:29:05;;;;;;;0.90;0.70;;;9.30;99.90;;;;;;5052990;28;20539;-56
2023/05/11 03:31:32;;;;;;;1.20;0.60;;;9.40;99.90;;;;;;5053269;28;20828;-57
2023/05/11 03:33:59;;;;;;;0.90;0.50;;;9.30;99.90;;;;;;5053225;28;20952;-58
2023/05/11 03:36:27;;;;;;;0.90;0.40;;;9.20;99.90;;;;;;5052641;28;20469;-57
2023/05/11 03:38:56;;;;;;;1.00;0.57;;;9.00;99.90;;;;;;5053753;28;20452;-58
2023/05/11 03:41:26;;;;;;;0.90;0.50;;;9.00;99.90;;;;;;5053574;28;20446;-57
2023/05/11 03:43:56;;;;;;;1.23;0.40;;;9.10;99.90;;;;;;5053515;28;20542;-57
2023/05/11 03:46:24;;;;;;;1.23;1.03;;;9.10;99.90;;;;;;5053478;28;20504;-57
2023/05/11 03:48:53;;;;;;;2.07;0.50;;;9.10;99.90;;;;;;5053741;28;20477;-57
2023/05/11 03:51:20;;;;;;;1.00;0.50;;;9.20;99.90;;;;;;5051923;28;20511;-57
2023/05/11 03:53:47;;;;;;;1.20;0.50;;;9.10;99.90;;;;;;5052777;28;20522;-57
2023/05/11 03:56:14;;;;;;;1.77;0.50;;;9.00;99.90;;;;;;5053158;28;20554;-57
2023/05/11 03:58:41;;;;;;;0.87;0.40;;;9.00;99.90;;;;;;5052445;28;20447;-57
2023/05/11 04:01:12;;;;;;;1.27;0.50;;;9.00;99.90;;;;;;5053008;28;20525;-58
2023/05/11 04:03:48;;;;;;;1.00;0.60;;;9.10;99.90;;;;;;5052526;28;20871;-57
2023/05/11 04:06:16;;;;;;;1.50;0.90;;;9.10;99.90;;;;;;5052585;28;20475;-57
2023/05/11 04:08:43;;;;;;;0.90;0.50;;;9.20;99.90;;;;;;5052814;28;20821;-58
2023/05/11 04:11:10;;;;;;;0.80;0.40;;;9.10;99.90;;;;;;5052653;28;20509;-57
2023/05/11 04:13:37;;;;;;;1.70;0.50;;;9.10;99.90;;;;;;5053063;28;20985;-57
2023/05/11 04:16:04;;;;;;;1.00;0.50;;;9.00;99.90;;;;;;5052943;28;21070;-58
2023/05/11 04:18:32;;;;;;;0.90;0.50;;;9.00;99.90;;;;;;5052270;28;20478;-57
2023/05/11 04:21:00;;;;;;;1.03;0.50;;;9.00;99.90;;;;;;5079567;22;21122;-58
2023/05/11 04:23:26;;;;;;;1.17;0.60;;;9.10;99.90;;;;;;5113616;28;20446;-58
2023/05/11 04:25:54;;;;;;;10.83;6.93;;;9.00;99.90;;;;;;5112832;28;20538;-58
2023/05/11 04:28:22;;;;;;;1.57;1.37;;;9.00;99.90;;;;;;5112288;28;20811;-58
2023/05/11 04:30:53;;;;;;;1.85;0.80;;;8.80;99.90;;;;;;5112376;28;20493;-57
2023/05/11 04:33:20;;;;;;;1.00;0.80;;;8.80;99.90;;;;;;5108440;28;20535;-58
2023/05/11 04:35:50;;;;;;;1.10;0.83;;;8.90;99.90;;;;;;5093298;28;20544;-59
2023/05/11 04:38:16;;;;;;;0.97;0.63;;;8.90;99.90;;;;;;5094171;28;20515;-58
2023/05/11 04:40:43;;;;;;;2.50;1.07;;;8.90;99.90;;;;;;5104680;28;20542;-58
2023/05/11 04:43:10;;;;;;;1.10;0.70;;;8.90;99.90;;;;;;5104653;28;20508;-59
2023/05/11 04:45:37;;;;;;;1.40;0.60;;;8.90;99.90;;;;;;5113067;28;20849;-58
2023/05/11 04:48:05;;;;;;;0.90;0.57;;;9.00;99.90;;;;;;5101089;28;20581;-58
2023/05/11 04:50:32;;;;;;;0.80;0.40;;;8.90;99.90;;;;;;5095200;28;20444;-58
2023/05/11 04:53:00;;;;;;;1.00;0.47;;;8.90;99.90;;;;;;5111227;28;20739;-59
2023/05/11 04:55:27;;;;;;;0.90;0.50;;;9.00;99.90;;;;;;5092133;28;20536;-58
2023/05/11 04:57:54;;;;;;;1.23;0.50;;;9.00;99.90;;;;;;5092528;28;20943;-58
2023/05/11 05:00:21;;;;;;;1.30;0.60;;;8.90;99.90;;;;;;5091241;28;20875;-58
2023/05/11 05:02:49;;;;;;;1.00;0.47;;;9.00;99.90;;;;;;5101926;28;20511;-58
2023/05/11 05:05:16;;;;;;;1.00;0.50;;;9.00;99.90;;;;;;5102902;28;20497;-58
2023/05/11 05:07:43;;;;;;;0.90;0.50;;;9.00;99.90;;;;;;5100592;28;20467;-58
2023/05/11 05:10:11;;;;;;;0.90;0.60;;;9.10;99.90;;;;;;5099416;28;20876;-58
2023/05/11 05:12:39;;;;;;;1.40;0.80;;;8.90;99.90;;;;;;5099921;28;20554;-58
2023/05/11 05:15:07;;;;;;;1.00;0.67;;;8.80;99.90;;;;;;5097999;28;20478;-58
2023/05/11 05:17:34;;;;;;;1.23;0.70;;;8.50;99.90;;;;;;5092325;28;20968;-58
2023/05/11 05:20:01;;;;;;;3.63;1.47;;;8.70;99.90;;;;;;5093483;28;20495;-57
2023/05/11 05:22:28;;;;;;;1.10;0.80;;;8.70;99.90;;;;;;5102096;28;21084;-58
2023/05/11 05:24:55;;;;;;;1.00;0.50;;;8.70;99.90;;;;;;5097457;28;20436;-58
2023/05/11 05:27:23;;;;;;;1.23;0.50;;;8.50;99.90;;;;;;5093901;28;20518;-58
2023/05/11 05:29:50;;;;;;;1.00;0.50;;;8.60;99.90;;;;;;5102499;28;20522;-58
2023/05/11 05:32:17;;;;;;;0.90;0.50;;;8.70;99.90;;;;;;5101688;28;20555;-59
2023/05/11 05:34:45;;;;;;;1.30;0.50;;;8.80;99.90;;;;;;5102293;28;20531;-58
2023/05/11 05:37:12;;;;;;;1.30;0.80;;;8.80;99.90;;;;;;5093448;27;20451;-58
2023/05/11 05:39:39;;;;;;;2.20;0.70;;;8.70;99.90;;;;;;5095279;28;20535;-58
2023/05/11 05:42:06;;;;;;;1.30;1.20;;;8.70;99.90;;;;;;5102958;28;20481;-57
2023/05/11 05:44:34;;;;;;;1.47;0.60;;;8.70;99.90;;;;;;5091770;28;20478;-58
2023/05/11 05:47:01;;;;;;;1.20;0.80;;;8.70;99.90;;;;;;5102153;28;21153;-57
2023/05/11 05:49:28;;;;;;;1.10;0.57;;;8.70;99.90;;;;;;5108616;28;20443;-58
2023/05/11 05:51:55;;;;;;;1.10;0.50;;;8.20;99.90;;;;;;5104856;28;20553;-58
2023/05/11 05:54:22;;;;;;;3.67;0.77;;;8.10;99.90;;;;;;5111777;28;20540;-59
2023/05/11 05:56:49;;;;;;;1.13;0.50;;;8.10;99.90;;;;;;5103035;28;20479;-58
2023/05/11 05:59:18;;;;;;;0.90;0.40;;;8.10;99.90;;;;;;5101355;28;21004;-59
2023/05/11 06:01:47;;;;;;;1.10;0.60;;;7.90;99.90;;;;;;5092421;28;20463;-58
2023/05/11 06:04:14;;;;;;;0.90;0.60;;;7.90;99.90;;;;;;5102374;28;21029;-58
2023/05/11 06:06:41;;;;;;;1.07;0.70;;;8.10;99.90;;;;;;5108423;28;20482;-58
2023/05/11 06:09:08;;;;;;;1.00;0.50;;;7.90;99.90;;;;;;5094419;28;20888;-59
2023/05/11 06:11:35;;;;;;;1.33;0.60;;;7.80;99.90;;;;;;5092836;28;20490;-58
2023/05/11 06:14:03;;;;;;;2.13;1.17;;;7.90;99.90;;;;;;5091270;28;20443;-57
2023/05/11 06:16:30;;;;;;;1.50;0.80;;;7.90;99.90;;;;;;5102596;28;20543;-58
2023/05/11 06:18:58;;;;;;;1.70;1.30;;;8.10;99.90;;;;;;5099419;28;20530;-58
2023/05/11 06:21:25;;;;;;;1.30;1.00;;;8.10;99.90;;;;;;5100101;28;20924;-58
2023/05/11 06:23:52;;;;;;;0.93;0.70;;;8.10;99.90;;;;;;5103134;28;20864;-59
2023/05/11 06:26:20;;;;;;;1.13;0.80;;;8.10;99.90;;;;;;5092667;28;20524;-59
2023/05/11 06:28:47;;;;;;;1.20;0.60;;;8.20;99.90;;;;;;5091131;28;20476;-58
2023/05/11 06:31:14;;;;;;;2.30;1.50;;;8.30;99.90;;;;;;5091166;28;20471;-59
2023/05/11 06:33:41;;;;;;;2.70;1.60;;;8.10;99.90;;;;;;5096476;28;20477;-59
2023/05/11 06:36:10;;;;;;;17.97;8.33;;;8.10;99.90;;;;;;5107023;28;20526;-59
2023/05/11 06:38:36;;;;;;;5.10;2.60;;;8.00;99.90;;;;;;5099370;28;20475;-59
2023/05/11 06:41:03;;;;;;;2.10;1.00;;;8.00;99.90;;;;;;5089753;28;20535;-59
2023/05/11 06:43:30;;;;;;;1.47;0.73;;;8.20;99.90;;;;;;5090345;28;20527;-59
2023/05/11 06:45:57;;;;;;;0.93;0.50;;;8.20;99.90;;;;;;5090555;28;20526;-59
2023/05/11 06:48:24;;;;;;;1.63;0.67;;;8.20;99.90;;;;;;5091159;28;21046;-58
2023/05/11 06:50:52;;;;;;;1.30;0.70;;;8.20;99.90;;;;;;5091383;28;20612;-59
2023/05/11 06:53:20;;;;;;;1.40;0.90;;;8.20;99.90;;;;;;5090783;28;20484;-59
2023/05/11 06:55:47;;;;;;;1.37;1.00;;;8.10;99.90;;;;;;5091767;28;20886;-59
2023/05/11 06:58:15;;;;;;;1.90;1.10;;;8.00;99.90;;;;;;5096113;28;20539;-58
2023/05/11 07:00:42;;;;;;;1.40;1.10;;;8.10;99.90;;;;;;5107240;28;20912;-58
2023/05/11 07:03:09;;;;;;;1.33;0.97;;;8.10;99.90;;;;;;5091696;28;20475;-58
2023/05/11 07:05:37;;;;;;;1.33;1.10;;;8.20;99.90;;;;;;5089728;28;20527;-58
2023/05/11 07:08:05;;;;;;;1.93;1.10;;;7.90;99.90;;;;;;5095687;28;20439;-58
2023/05/11 07:10:33;;;;;;;1.30;1.10;;;8.20;99.90;;;;;;5110021;28;20952;-57
2023/05/11 07:13:00;;;;;;;1.70;1.47;;;8.10;99.90;;;;;;5109048;28;20858;-58
2023/05/11 07:15:27;;;;;;;1.80;1.40;;;8.10;99.90;;;;;;5109925;28;20482;-58
2023/05/11 07:17:54;;;;;;;1.83;1.40;;;8.10;99.90;;;;;;5108984;28;20989;-58
2023/05/11 07:20:21;;;;;;;1.40;1.30;;;8.10;99.90;;;;;;5093541;28;20519;-58
2023/05/11 07:22:48;;;;;;;1.50;1.23;;;8.10;99.90;;;;;;5107706;28;20546;-59
2023/05/11 07:25:14;;;;;;;1.93;1.00;;;8.20;99.90;;;;;;5109952;28;20860;-58
2023/05/11 07:27:43;;;;;;;1.87;1.43;;;8.00;99.90;;;;;;5098141;28;20526;-58
2023/05/11 07:30:10;;;;;;;1.93;1.00;;;8.10;99.90;;;;;;5108279;28;20579;-59
2023/05/11 07:32:37;;;;;;;1.10;0.97;;;8.10;99.90;;;;;;5092245;28;20550;-58
2023/05/11 07:35:05;;;;;;;1.77;1.10;;;8.10;99.90;;;;;;5092757;28;20518;-59
2023/05/11 07:37:32;;;;;;;2.30;2.00;;;8.10;99.90;;;;;;5093027;28;20455;-58
2023/05/11 07:39:59;;;;;;;1.53;1.00;;;8.00;99.90;;;;;;5092756;28;20475;-59
2023/05/11 07:42:26;;;;;;;1.03;0.70;;;8.10;99.90;;;;;;5091513;28;20491;-59
2023/05/11 07:44:54;;;;;;;1.20;0.80;;;8.00;99.90;;;;;;5092671;28;20439;-59
2023/05/11 07:47:22;;;;;;;1.57;0.83;;;8.10;99.90;;;;;;5092016;28;20530;-58
2023/05/11 07:49:49;;;;;;;1.57;1.23;;;8.30;99.90;;;;;;5092619;28;20470;-59
2023/05/11 07:52:16;;;;;;;1.63;1.17;;;8.00;99.90;;;;;;5093021;28;20475;-57
2023/05/11 07:54:43;;;;;;;1.90;1.20;;;8.10;99.90;;;;;;5092872;28;20535;-58
2023/05/11 07:57:12;;;;;;;1.10;0.90;;;8.10;99.90;;;;;;5092792;28;20435;-58
2023/05/11 07:59:39;;;;;;;1.20;0.90;;;8.30;99.90;;;;;;5092488;28;20869;-58
2023/05/11 08:02:09;;;;;;;2.40;1.33;;;8.20;99.90;;;;;;5092553;28;20889;-58
2023/05/11 08:04:36;;;;;;;2.23;0.77;;;8.20;99.90;;;;;;5092728;28;20440;-58
2023/05/11 08:07:04;;;;;;;1.30;1.00;;;8.20;99.90;;;;;;5094765;28;20535;-58
2023/05/11 08:09:31;;;;;;;1.20;0.80;;;8.10;99.90;;;;;;5111291;28;20439;-58
2023/05/11 08:12:00;;;;;;;2.03;1.00;;;8.00;99.90;;;;;;5092940;28;20460;-58
2023/05/11 08:14:27;;;;;;;1.20;0.80;;;8.00;99.90;;;;;;5100534;28;20538;-58
2023/05/11 08:16:54;;;;;;;1.30;0.90;;;8.00;99.90;;;;;;5102120;28;20825;-59
2023/05/11 08:19:22;;;;;;;1.43;0.73;;;8.20;99.90;;;;;;5091889;28;20475;-58
2023/05/11 08:21:49;;;;;;;1.20;0.70;;;8.00;99.90;;;;;;5092219;28;20504;-58
2023/05/11 08:24:16;;;;;;;1.53;0.93;;;8.10;99.90;;;;;;5092037;28;20546;-58
2023/05/11 08:26:43;;;;;;;1.23;0.87;;;8.10;99.90;;;;;;5091908;28;20444;-59
2023/05/11 08:29:11;;;;;;;1.73;1.20;;;8.10;99.90;;;;;;5091826;28;20440;-58
2023/05/11 08:31:38;;;;;;;2.73;1.33;;;8.00;99.90;;;;;;5090514;28;20552;-58
2023/05/11 08:34:07;;;;;;;1.70;1.40;;;8.00;99.90;;;;;;5092110;28;20480;-58
2023/05/11 08:36:35;;;;;;;1.77;1.20;;;7.90;99.90;;;;;;5106398;28;20450;-58
2023/05/11 08:39:03;;;;;;;1.30;1.00;;;8.00;99.90;;;;;;5104103;28;20539;-59
2023/05/11 08:41:30;;;;;;;1.97;1.47;;;7.80;99.90;;;;;;5090652;28;20932;-57
2023/05/11 08:44:01;;;;;;;1.70;1.20;;;7.90;99.90;;;;;;5091855;28;20525;-59
2023/05/11 08:46:30;;;;;;;1.83;1.33;;;7.90;99.90;;;;;;5090595;28;20484;-58
2023/05/11 08:48:58;;;;;;;1.47;1.37;;;8.00;99.90;;;;;;5090626;28;20440;-58
2023/05/11 08:51:25;;;;;;;1.90;1.50;;;8.20;99.90;;;;;;5092583;28;20467;-57
2023/05/11 08:53:56;;;;;;;1.97;1.30;;;8.20;99.90;;;;;;5101526;28;20889;-58
2023/05/11 08:56:25;;;;;;;2.20;1.50;;;8.30;99.90;;;;;;5093460;28;20942;-58
2023/05/11 08:58:54;;;;;;;2.30;1.47;;;8.20;99.90;;;;;;5093305;28;20866;-59
2023/05/11 09:01:22;;;;;;;1.60;1.50;;;8.00;99.90;;;;;;5100078;28;20543;-58
2023/05/11 09:03:50;;;;;;;3.73;2.63;;;7.90;99.90;;;;;;5105605;28;20512;-58
2023/05/11 09:06:18;;;;;;;2.90;2.33;;;8.00;99.90;;;;;;5092860;28;20471;-59
2023/05/11 09:08:46;;;;;;;3.83;2.30;;;8.20;99.90;;;;;;5103119;28;20496;-59
2023/05/11 09:11:14;;;;;;;1.67;1.17;;;8.40;99.90;;;;;;5094266;28;20559;-59
2023/05/11 09:13:41;;;;;;;1.87;1.23;;;8.30;99.90;;;;;;5091011;28;20471;-57
2023/05/11 09:16:08;;;;;;;3.33;2.30;;;8.30;99.90;;;;;;5105555;28;20530;-58
2023/05/11 09:18:35;;;;;;;2.13;1.57;;;8.30;99.90;;;;;;5103933;28;20473;-58
2023/05/11 09:21:02;;;;;;;2.80;1.30;;;8.40;99.90;;;;;;5110398;28;20501;-58
2023/05/11 09:23:29;;;;;;;1.20;1.00;;;8.60;99.90;;;;;;5109975;28;20925;-57
2023/05/11 09:25:56;;;;;;;1.03;0.60;;;8.70;99.90;;;;;;5100287;28;20544;-57
2023/05/11 09:28:26;;;;;;;1.20;1.10;;;8.60;99.90;;;;;;5090212;28;20982;-58
2023/05/11 09:30:53;;;;;;;1.37;0.90;;;8.60;99.90;;;;;;5100675;28;20560;-58
2023/05/11 09:33:23;;;;;;;1.10;0.80;;;8.50;99.90;;;;;;5102636;28;20915;-58
2023/05/11 09:35:50;;;;;;;1.53;0.90;;;8.70;99.90;;;;;;5103373;28;20434;-59
2023/05/11 09:38:19;;;;;;;1.47;1.00;;;8.70;99.90;;;;;;5111204;28;20492;-58
2023/05/11 09:40:56;;;;;;;1.53;1.03;;;8.50;99.90;;;;;;5090526;28;20557;-58
2023/05/11 09:43:26;;;;;;;1.57;1.00;;;8.70;99.90;;;;;;5090743;28;20471;-58
2023/05/11 09:45:55;;;;;;;1.50;1.30;;;8.80;99.90;;;;;;5096840;28;20878;-57
2023/05/11 09:48:30;;;;;;;1.30;0.97;;;8.70;99.90;;;;;;5108306;28;20498;-58
2023/05/11 09:51:02;;;;;;;1.50;1.07;;;8.70;99.90;;;;;;5096618;28;20476;-58
2023/05/11 09:53:41;;;;;;;1.43;1.33;;;8.60;99.90;;;;;;5098844;28;20476;-58
2023/05/11 09:56:09;;;;;;;1.50;1.17;;;8.70;99.90;;;;;;5097621;28;20455;-58
2023/05/11 09:58:49;;;;;;;2.53;1.07;;;8.80;99.90;;;;;;5096931;28;20459;-58
2023/05/11 10:01:18;;;;;;;1.17;0.63;;;8.70;99.90;;;;;;5099571;28;21015;-59
2023/05/11 10:03:52;;;;;;;1.40;0.80;;;8.80;99.90;;;;;;5099891;28;20999;-58
2023/05/11 10:06:20;;;;;;;1.43;1.10;;;8.80;99.90;;;;;;5107285;28;20480;-58
2023/05/11 10:08:47;;;;;;;2.00;0.90;;;8.90;99.90;;;;;;5097578;28;20486;-58
2023/05/11 10:11:14;;;;;;;1.10;0.70;;;8.80;99.90;;;;;;5088562;28;20547;-57
2023/05/11 10:13:42;;;;;;;1.30;0.70;;;8.90;99.90;;;;;;5101420;28;20567;-59
2023/05/11 10:16:12;;;;;;;1.30;0.87;;;8.90;99.90;;;;;;5104511;28;20474;-58
2023/05/11 10:18:42;;;;;;;1.10;0.80;;;8.80;99.90;;;;;;5093885;28;20531;-58
2023/05/11 10:21:09;;;;;;;1.83;1.00;;;8.90;99.90;;;;;;5112847;22;20483;-86
2023/05/11 10:23:37;;;;;;;10.17;7.40;;;8.90;99.90;;;;;;5090194;28;20483;-86
2023/05/11 10:26:04;;;;;;;2.93;2.40;;;8.90;99.90;;;;;;5095184;28;20462;-84
2023/05/11 10:28:32;;;;;;;1.20;1.00;;;9.00;99.90;;;;;;5091856;28;20437;-85
2023/05/11 10:30:59;;;;;;;2.60;1.30;;;9.10;99.90;;;;;;5085985;28;21029;-85
2023/05/11 10:33:28;;;;;;;1.87;1.10;;;9.00;99.90;;;;;;5081195;28;20533;-84
2023/05/11 10:35:56;;;;;;;1.83;1.63;;;8.90;99.90;;;;;;5076402;28;20521;-86
2023/05/11 10:38:24;;;;;;;1.20;0.90;;;9.00;99.90;;;;;;5076306;28;20468;-85
2023/05/11 10:40:54;;;;;;;3.03;1.40;;;9.10;99.90;;;;;;5078984;28;20491;-86
2023/05/11 10:43:44;;;;;;;2.13;1.23;;;8.90;99.90;;;;;;5080314;22;20508;-60
2023/05/11 10:46:29;;;;;;;1.60;0.90;;;8.80;99.90;;;;;;5058544;28;20552;-59
2023/05/11 10:49:22;;;;;;;1.63;1.10;;;8.80;99.90;;;;;;5058788;28;20457;-58
2023/05/11 10:52:17;;;;;;;2.00;1.10;;;8.90;99.90;;;;;;5055522;28;20569;-59
2023/05/11 10:54:56;;;;;;;1.50;1.10;;;8.90;99.90;;;;;;5014157;28;20983;-61
2023/05/11 10:57:41;;;;;;;1.60;1.40;;;8.80;99.90;;;;;;5037808;28;21000;-58
2023/05/11 11:00:52;;;;;;;1.30;0.93;;;8.90;99.90;;;;;;5041820;28;20464;-59
2023/05/11 11:03:19;;;;;;;1.40;1.13;;;9.00;99.90;;;;;;5050813;28;20528;-58
2023/05/11 11:05:48;;;;;;;1.47;1.20;;;9.00;99.90;;;;;;5049509;28;20528;-59
2023/05/11 11:08:14;;;;;;;1.23;1.10;;;9.00;99.90;;;;;;5046602;28;20511;-59
2023/05/11 11:10:44;;;;;;;2.17;1.10;;;8.90;99.90;;;;;;5048359;28;20540;-51
2023/05/11 11:13:13;;;;;;;1.30;0.80;;;8.90;99.90;;;;;;5043544;28;20455;-55
2023/05/11 11:16:08;;;;;;;1.40;1.10;;;9.10;99.90;;;;;;5040250;28;20897;-56
2023/05/11 11:18:35;;;;;;;1.57;0.93;;;9.20;99.90;;;;;;5042969;28;20911;-58
2023/05/11 11:21:04;;;;;;;1.70;1.30;;;9.20;99.90;;;;;;5048957;28;20504;-56
2023/05/11 11:23:47;;;;;;;1.80;1.20;;;9.40;99.90;;;;;;5051386;28;20438;-55
2023/05/11 11:26:17;;;;;;;1.40;1.00;;;9.40;99.90;;;;;;5039882;28;20504;-56
2023/05/11 11:29:10;;;;;;;2.80;1.20;;;9.50;99.90;;;;;;5049083;28;20541;-56
2023/05/11 11:31:38;;;;;;;1.37;1.00;;;9.60;99.90;;;;;;5041943;28;21736;-59
2023/05/11 11:34:32;;;;;;;2.63;1.87;;;9.60;99.90;;;;;;5045598;28;20506;-59
2023/05/11 11:37:12;;;;;;;1.10;0.80;;;9.40;99.90;;;;;;5040448;28;20538;-58
2023/05/11 11:40:00;;;;;;;1.77;1.30;;;9.40;99.90;;;;;;5049315;28;20904;-57
2023/05/11 11:42:36;;;;;;;1.30;0.80;;;9.30;99.90;;;;;;5053591;28;20546;-57
2023/05/11 11:45:26;;;;;;;1.20;0.87;;;9.30;99.90;;;;;;5053356;28;20527;-56
2023/05/11 11:48:14;;;;;;;3.43;2.20;;;9.30;99.90;;;;;;5053574;28;20937;-56
2023/05/11 11:50:42;;;;;;;1.20;0.70;;;9.40;99.90;;;;;;5053251;28;20469;-56
2023/05/11 11:54:04;;;;;;;1.30;0.93;;;9.40;99.90;;;;;;5053484;28;20822;-57
2023/05/11 11:56:47;;;;;;;1.80;1.60;;;9.40;99.90;;;;;;5038709;28;20920;-56
2023/05/11 11:59:15;;;;;;;1.67;1.40;;;9.40;99.90;;;;;;5045158;28;20529;-58
2023/05/11 12:01:44;;;;;;;1.83;1.63;;;9.40;99.90;;;;;;5052012;28;20465;-57
2023/05/11 12:04:40;;;;;;;2.50;1.60;;;9.30;99.90;;;;;;5052496;28;20848;-55
2023/05/11 12:07:10;;;;;;;3.67;2.63;;;9.40;99.90;;;;;;5052203;28;20802;-56
2023/05/11 12:09:41;;;;;;;2.63;1.93;;;9.30;99.90;;;;;;5052202;28;20445;-56
2023/05/11 12:12:09;;;;;;;3.87;3.30;;;9.40;99.90;;;;;;5050998;28;20458;-57
2023/05/11 12:14:39;;;;;;;3.40;2.57;;;9.40;99.90;;;;;;5052128;28;20992;-57
2023/05/11 12:17:12;;;;;;;1.97;1.20;;;9.40;99.90;;;;;;5051745;28;20537;-57
2023/05/11 12:19:40;;;;;;;1.40;1.07;;;9.60;99.90;;;;;;5052333;28;20453;-56
2023/05/11 12:22:09;;;;;;;2.03;1.20;;;9.60;99.90;;;;;;5051812;28;20466;-56
2023/05/11 12:24:37;;;;;;;1.87;1.40;;;9.60;99.90;;;;;;5052134;28;20535;-57
2023/05/11 12:27:05;;;;;;;1.70;1.20;;;9.80;99.90;;;;;;5051902;28;20909;-55
2023/05/11 12:29:32;;;;;;;3.63;1.73;;;9.80;99.90;;;;;;5052353;28;20847;-57
2023/05/11 12:31:59;;;;;;;2.03;1.83;;;9.60;99.90;;;;;;5051802;28;20547;-57
2023/05/11 12:34:26;;;;;;;2.47;1.87;;;9.70;99.90;;;;;;5051855;28;20477;-55
2023/05/11 12:36:54;;;;;;;2.03;1.70;;;9.80;99.90;;;;;;5052244;28;20442;-55
2023/05/11 12:39:23;;;;;;;1.97;1.60;;;9.90;99.90;;;;;;5051587;28;20534;-55
2023/05/11 12:41:52;;;;;;;1.50;1.30;;;9.80;99.90;;;;;;5050968;28;20510;-55
2023/05/11 12:44:21;;;;;;;2.40;1.40;;;10.00;99.90;;;;;;5051562;28;20528;-54
2023/05/11 12:46:49;;;;;;;3.50;1.73;;;10.00;99.90;;;;;;5050613;28;20469;-55
2023/05/11 12:49:18;;;;;;;2.27;1.70;;;9.90;99.90;;;;;;5046231;28;20683;-57
2023/05/11 12:51:46;;;;;;;1.60;1.40;;;9.90;99.90;;;;;;5047438;28;20461;-54
2023/05/11 12:54:25;;;;;;;2.10;1.40;;;10.00;99.90;;;;;;5049194;28;20567;-55
2023/05/11 12:56:52;;;;;;;1.90;1.07;;;9.90;99.90;;;;;;5049685;28;20496;-55
2023/05/11 12:59:32;;;;;;;1.83;1.60;;;10.00;99.90;;;;;;5048822;28;20991;-54
2023/05/11 13:02:10;;;;;;;1.27;0.93;;;10.20;99.90;;;;;;5049328;28;20463;-57
2023/05/11 13:04:37;;;;;;;1.10;0.70;;;10.10;99.90;;;;;;5047422;28;20471;-55
2023/05/11 13:07:04;;;;;;;1.73;1.10;;;10.00;99.90;;;;;;5038413;28;20944;-56
2023/05/11 13:09:32;;;;;;;3.07;1.00;;;10.00;99.90;;;;;;5051767;28;20535;-55